sensor_id;sensor_type;location;lat;lon;timestamp;P1;durP1;ratioP1;P2;durP2;ratioP2
43580;SDS011;29175;51.030;4.606;2023-08-12T00:00:28;17.48;;;6.45;;
43580;SDS011;29175;51.030;4.606;2023-08-12T00:02:55;16.35;;;6.15;;
43580;SDS011;29175;51.030;4.606;2023-08-12T00:05:21;11.30;;;5.68;;
43580;SDS011;29175;51.030;4.606;2023-08-12T00:07:47;21.05;;;6.40;;
43580;SDS011;29175;51.030;4.606;2023-08-12T00:10:15;16.33;;;6.82;;
43580;SDS011;29175;51.030;4.606;2023-08-12T00:12:40;15.85;;;6.28;;
43580;SDS011;29175;51.030;4.606;2023-08-12T00:15:06;22.52;;;6.95;;
43580;SDS011;29175;51.030;4.606;2023-08-12T00:17:34;16.25;;;6.80;;
43580;SDS011;29175;51.030;4.606;2023-08-12T00:20:02;16.50;;;7.37;;
43580;SDS011;29175;51.030;4.606;2023-08-12T00:22:31;20.38;;;6.25;;
43580;SDS011;29175;51.030;4.606;2023-08-12T00:24:57;16.63;;;6.20;;
43580;SDS011;29175;51.030;4.606;2023-08-12T00:27:24;16.52;;;6.22;;
43580;SDS011;29175;51.030;4.606;2023-08-12T00:29:50;16.92;;;6.38;;
43580;SDS011;29175;51.030;4.606;2023-08-12T00:32:15;15.43;;;6.88;;
43580;SDS011;29175;51.030;4.606;2023-08-12T00:34:42;20.08;;;6.68;;
43580;SDS011;29175;51.030;4.606;2023-08-12T00:37:08;18.63;;;6.93;;
43580;SDS011;29175;51.030;4.606;2023-08-12T00:39:34;20.85;;;6.53;;
43580;SDS011;29175;51.030;4.606;2023-08-12T00:42:01;20.08;;;6.38;;
43580;SDS011;29175;51.030;4.606;2023-08-12T00:44:27;17.88;;;6.13;;
43580;SDS011;29175;51.030;4.606;2023-08-12T00:46:53;13.20;;;6.10;;
43580;SDS011;29175;51.030;4.606;2023-08-12T00:49:23;16.95;;;5.95;;
43580;SDS011;29175;51.030;4.606;2023-08-12T00:51:56;19.00;;;6.47;;
43580;SDS011;29175;51.030;4.606;2023-08-12T00:54:21;14.35;;;5.68;;
43580;SDS011;29175;51.030;4.606;2023-08-12T00:56:49;11.70;;;6.03;;
43580;SDS011;29175;51.030;4.606;2023-08-12T00:59:15;13.07;;;5.60;;
43580;SDS011;29175;51.030;4.606;2023-08-12T01:01:42;15.88;;;5.78;;
43580;SDS011;29175;51.030;4.606;2023-08-12T01:04:09;11.88;;;5.47;;
43580;SDS011;29175;51.030;4.606;2023-08-12T01:06:35;15.60;;;5.93;;
43580;SDS011;29175;51.030;4.606;2023-08-12T01:09:02;13.07;;;6.10;;
43580;SDS011;29175;51.030;4.606;2023-08-12T01:16:49;14.82;;;5.72;;
43580;SDS011;29175;51.030;4.606;2023-08-12T01:19:26;13.75;;;5.45;;
43580;SDS011;29175;51.030;4.606;2023-08-12T01:21:59;14.35;;;6.07;;
43580;SDS011;29175;51.030;4.606;2023-08-12T01:24:26;16.00;;;5.53;;
43580;SDS011;29175;51.030;4.606;2023-08-12T01:26:54;14.75;;;5.50;;
43580;SDS011;29175;51.030;4.606;2023-08-12T01:29:20;12.18;;;4.70;;
43580;SDS011;29175;51.030;4.606;2023-08-12T01:31:54;14.68;;;5.15;;
43580;SDS011;29175;51.030;4.606;2023-08-12T01:36:56;11.20;;;5.68;;
43580;SDS011;29175;51.030;4.606;2023-08-12T01:39:24;14.55;;;5.68;;
43580;SDS011;29175;51.030;4.606;2023-08-12T01:41:51;16.35;;;5.70;;
43580;SDS011;29175;51.030;4.606;2023-08-12T01:44:18;12.52;;;5.30;;
43580;SDS011;29175;51.030;4.606;2023-08-12T01:46:44;16.65;;;5.50;;
43580;SDS011;29175;51.030;4.606;2023-08-12T01:49:11;13.35;;;4.82;;
43580;SDS011;29175;51.030;4.606;2023-08-12T01:51:37;16.13;;;5.68;;
43580;SDS011;29175;51.030;4.606;2023-08-12T01:54:03;14.68;;;5.60;;
43580;SDS011;29175;51.030;4.606;2023-08-12T01:56:28;19.77;;;6.00;;
43580;SDS011;29175;51.030;4.606;2023-08-12T01:58:54;12.02;;;5.05;;
43580;SDS011;29175;51.030;4.606;2023-08-12T02:01:20;10.07;;;5.15;;
43580;SDS011;29175;51.030;4.606;2023-08-12T02:03:46;15.73;;;5.55;;
43580;SDS011;29175;51.030;4.606;2023-08-12T02:06:11;19.70;;;5.60;;
43580;SDS011;29175;51.030;4.606;2023-08-12T02:08:37;14.80;;;5.60;;
43580;SDS011;29175;51.030;4.606;2023-08-12T02:11:04;14.93;;;5.53;;
43580;SDS011;29175;51.030;4.606;2023-08-12T02:13:30;11.57;;;5.60;;
43580;SDS011;29175;51.030;4.606;2023-08-12T02:15:55;15.73;;;5.90;;
43580;SDS011;29175;51.030;4.606;2023-08-12T02:18:22;17.52;;;5.20;;
43580;SDS011;29175;51.030;4.606;2023-08-12T02:20:48;14.57;;;5.30;;
43580;SDS011;29175;51.030;4.606;2023-08-12T02:23:13;15.88;;;5.57;;
43580;SDS011;29175;51.030;4.606;2023-08-12T02:25:39;11.60;;;5.85;;
43580;SDS011;29175;51.030;4.606;2023-08-12T02:28:05;12.27;;;5.22;;
43580;SDS011;29175;51.030;4.606;2023-08-12T02:30:31;14.65;;;6.20;;
43580;SDS011;29175;51.030;4.606;2023-08-12T02:32:57;11.73;;;5.70;;
43580;SDS011;29175;51.030;4.606;2023-08-12T02:35:22;12.63;;;5.47;;
43580;SDS011;29175;51.030;4.606;2023-08-12T02:37:48;14.18;;;5.85;;
43580;SDS011;29175;51.030;4.606;2023-08-12T02:40:14;17.17;;;6.18;;
43580;SDS011;29175;51.030;4.606;2023-08-12T02:42:40;14.23;;;5.28;;
43580;SDS011;29175;51.030;4.606;2023-08-12T02:45:06;12.73;;;5.57;;
43580;SDS011;29175;51.030;4.606;2023-08-12T02:47:32;16.52;;;5.53;;
43580;SDS011;29175;51.030;4.606;2023-08-12T02:49:57;11.70;;;5.80;;
43580;SDS011;29175;51.030;4.606;2023-08-12T02:52:23;11.38;;;5.65;;
43580;SDS011;29175;51.030;4.606;2023-08-12T02:54:50;14.23;;;5.78;;
43580;SDS011;29175;51.030;4.606;2023-08-12T02:57:15;17.73;;;5.82;;
43580;SDS011;29175;51.030;4.606;2023-08-12T02:59:41;14.48;;;5.75;;
43580;SDS011;29175;51.030;4.606;2023-08-12T03:02:07;12.05;;;5.57;;
43580;SDS011;29175;51.030;4.606;2023-08-12T03:04:33;15.20;;;6.00;;
43580;SDS011;29175;51.030;4.606;2023-08-12T03:06:59;9.48;;;5.30;;
43580;SDS011;29175;51.030;4.606;2023-08-12T03:09:24;15.75;;;5.32;;
43580;SDS011;29175;51.030;4.606;2023-08-12T03:11:50;10.13;;;5.00;;
43580;SDS011;29175;51.030;4.606;2023-08-12T03:14:16;11.25;;;5.30;;
43580;SDS011;29175;51.030;4.606;2023-08-12T03:16:42;14.18;;;5.30;;
43580;SDS011;29175;51.030;4.606;2023-08-12T03:19:07;14.07;;;5.20;;
43580;SDS011;29175;51.030;4.606;2023-08-12T03:21:33;8.07;;;5.00;;
43580;SDS011;29175;51.030;4.606;2023-08-12T03:23:59;13.25;;;4.85;;
43580;SDS011;29175;51.030;4.606;2023-08-12T03:26:25;11.88;;;5.40;;
43580;SDS011;29175;51.030;4.606;2023-08-12T03:28:51;15.98;;;6.07;;
43580;SDS011;29175;51.030;4.606;2023-08-12T03:31:16;15.73;;;5.93;;
43580;SDS011;29175;51.030;4.606;2023-08-12T03:33:43;20.02;;;7.13;;
43580;SDS011;29175;51.030;4.606;2023-08-12T03:36:09;20.73;;;6.40;;
43580;SDS011;29175;51.030;4.606;2023-08-12T03:38:35;11.90;;;6.15;;
43580;SDS011;29175;51.030;4.606;2023-08-12T03:41:01;75.97;;;10.27;;
43580;SDS011;29175;51.030;4.606;2023-08-12T03:43:28;2.10;;;1.05;;
43580;SDS011;29175;51.030;4.606;2023-08-12T03:45:53;0.50;;;0.50;;
43580;SDS011;29175;51.030;4.606;2023-08-12T03:48:20;0.75;;;0.75;;
43580;SDS011;29175;51.030;4.606;2023-08-12T03:50:47;0.30;;;0.30;;
43580;SDS011;29175;51.030;4.606;2023-08-12T03:53:14;0.10;;;0.10;;
43580;SDS011;29175;51.030;4.606;2023-08-12T03:55:40;1.75;;;0.68;;
43580;SDS011;29175;51.030;4.606;2023-08-12T03:58:06;0.60;;;0.60;;
43580;SDS011;29175;51.030;4.606;2023-08-12T04:00:32;0.20;;;0.20;;
43580;SDS011;29175;51.030;4.606;2023-08-12T04:02:59;0.10;;;0.10;;
43580;SDS011;29175;51.030;4.606;2023-08-12T04:05:24;0.20;;;0.20;;
43580;SDS011;29175;51.030;4.606;2023-08-12T04:07:51;0.52;;;0.52;;
43580;SDS011;29175;51.030;4.606;2023-08-12T04:10:17;18.90;;;6.55;;
43580;SDS011;29175;51.030;4.606;2023-08-12T04:12:43;0.28;;;0.28;;
43580;SDS011;29175;51.030;4.606;2023-08-12T04:15:08;0.35;;;0.35;;
43580;SDS011;29175;51.030;4.606;2023-08-12T04:17:35;0.55;;;0.55;;
43580;SDS011;29175;51.030;4.606;2023-08-12T04:20:02;2.38;;;1.38;;
43580;SDS011;29175;51.030;4.606;2023-08-12T04:22:31;1.05;;;0.82;;
43580;SDS011;29175;51.030;4.606;2023-08-12T04:24:57;0.75;;;0.40;;
43580;SDS011;29175;51.030;4.606;2023-08-12T04:27:22;0.10;;;0.10;;
43580;SDS011;29175;51.030;4.606;2023-08-12T04:29:48;2.17;;;1.40;;
43580;SDS011;29175;51.030;4.606;2023-08-12T04:32:13;0.40;;;0.40;;
43580;SDS011;29175;51.030;4.606;2023-08-12T04:39:36;0.13;;;0.13;;
43580;SDS011;29175;51.030;4.606;2023-08-12T04:42:03;0.20;;;0.20;;
43580;SDS011;29175;51.030;4.606;2023-08-12T04:44:29;10.65;;;5.97;;
43580;SDS011;29175;51.030;4.606;2023-08-12T04:46:55;16.58;;;6.95;;
43580;SDS011;29175;51.030;4.606;2023-08-12T04:49:21;21.15;;;7.70;;
43580;SDS011;29175;51.030;4.606;2023-08-12T04:51:51;12.50;;;6.00;;
43580;SDS011;29175;51.030;4.606;2023-08-12T04:54:17;14.55;;;6.70;;
43580;SDS011;29175;51.030;4.606;2023-08-12T04:56:43;18.25;;;6.60;;
43580;SDS011;29175;51.030;4.606;2023-08-12T04:59:09;14.32;;;6.68;;
43580;SDS011;29175;51.030;4.606;2023-08-12T05:01:35;12.25;;;6.28;;
43580;SDS011;29175;51.030;4.606;2023-08-12T05:04:01;16.75;;;7.82;;
43580;SDS011;29175;51.030;4.606;2023-08-12T05:06:27;15.60;;;7.60;;
43580;SDS011;29175;51.030;4.606;2023-08-12T05:08:52;17.92;;;7.38;;
43580;SDS011;29175;51.030;4.606;2023-08-12T05:11:18;15.93;;;7.13;;
43580;SDS011;29175;51.030;4.606;2023-08-12T05:13:45;16.20;;;7.22;;
43580;SDS011;29175;51.030;4.606;2023-08-12T05:16:12;15.70;;;7.05;;
43580;SDS011;29175;51.030;4.606;2023-08-12T05:18:38;13.65;;;6.88;;
43580;SDS011;29175;51.030;4.606;2023-08-12T05:21:04;17.58;;;7.18;;
43580;SDS011;29175;51.030;4.606;2023-08-12T05:23:29;11.07;;;6.43;;
43580;SDS011;29175;51.030;4.606;2023-08-12T05:25:55;14.27;;;7.38;;
43580;SDS011;29175;51.030;4.606;2023-08-12T05:28:21;16.40;;;7.05;;
43580;SDS011;29175;51.030;4.606;2023-08-12T05:30:48;13.05;;;6.97;;
43580;SDS011;29175;51.030;4.606;2023-08-12T05:33:14;14.80;;;6.20;;
43580;SDS011;29175;51.030;4.606;2023-08-12T05:35:40;15.00;;;6.60;;
43580;SDS011;29175;51.030;4.606;2023-08-12T05:38:06;13.20;;;6.47;;
43580;SDS011;29175;51.030;4.606;2023-08-12T05:40:31;13.65;;;6.63;;
43580;SDS011;29175;51.030;4.606;2023-08-12T05:42:58;10.38;;;5.38;;
43580;SDS011;29175;51.030;4.606;2023-08-12T05:45:25;11.32;;;5.63;;
43580;SDS011;29175;51.030;4.606;2023-08-12T05:47:53;8.40;;;5.25;;
43580;SDS011;29175;51.030;4.606;2023-08-12T05:50:18;8.43;;;4.93;;
43580;SDS011;29175;51.030;4.606;2023-08-12T05:52:44;10.02;;;5.10;;
43580;SDS011;29175;51.030;4.606;2023-08-12T05:55:10;8.50;;;4.90;;
43580;SDS011;29175;51.030;4.606;2023-08-12T05:57:35;10.32;;;5.05;;
43580;SDS011;29175;51.030;4.606;2023-08-12T06:00:01;10.82;;;5.78;;
43580;SDS011;29175;51.030;4.606;2023-08-12T06:02:27;10.38;;;5.03;;
43580;SDS011;29175;51.030;4.606;2023-08-12T06:04:53;16.10;;;5.40;;
43580;SDS011;29175;51.030;4.606;2023-08-12T06:07:20;10.30;;;5.30;;
43580;SDS011;29175;51.030;4.606;2023-08-12T06:09:45;10.82;;;5.25;;
43580;SDS011;29175;51.030;4.606;2023-08-12T06:12:11;9.95;;;5.25;;
43580;SDS011;29175;51.030;4.606;2023-08-12T06:14:37;11.32;;;4.90;;
43580;SDS011;29175;51.030;4.606;2023-08-12T06:17:04;10.05;;;5.32;;
43580;SDS011;29175;51.030;4.606;2023-08-12T06:19:30;9.25;;;5.13;;
43580;SDS011;29175;51.030;4.606;2023-08-12T06:21:56;9.30;;;4.85;;
43580;SDS011;29175;51.030;4.606;2023-08-12T06:24:23;11.07;;;5.20;;
43580;SDS011;29175;51.030;4.606;2023-08-12T06:26:49;13.13;;;5.45;;
43580;SDS011;29175;51.030;4.606;2023-08-12T06:29:16;6.95;;;4.78;;
43580;SDS011;29175;51.030;4.606;2023-08-12T06:31:42;9.48;;;5.47;;
43580;SDS011;29175;51.030;4.606;2023-08-12T06:34:07;9.95;;;5.32;;
43580;SDS011;29175;51.030;4.606;2023-08-12T06:36:34;10.95;;;4.93;;
43580;SDS011;29175;51.030;4.606;2023-08-12T06:39:00;8.07;;;4.82;;
43580;SDS011;29175;51.030;4.606;2023-08-12T06:41:26;9.43;;;4.88;;
43580;SDS011;29175;51.030;4.606;2023-08-12T06:43:51;7.28;;;4.47;;
43580;SDS011;29175;51.030;4.606;2023-08-12T06:46:17;10.57;;;5.13;;
43580;SDS011;29175;51.030;4.606;2023-08-12T06:48:43;10.18;;;4.35;;
43580;SDS011;29175;51.030;4.606;2023-08-12T06:51:08;10.73;;;4.85;;
43580;SDS011;29175;51.030;4.606;2023-08-12T06:53:37;9.02;;;4.93;;
43580;SDS011;29175;51.030;4.606;2023-08-12T06:56:04;11.73;;;4.85;;
43580;SDS011;29175;51.030;4.606;2023-08-12T06:58:30;11.32;;;4.60;;
43580;SDS011;29175;51.030;4.606;2023-08-12T07:00:56;9.13;;;4.13;;
43580;SDS011;29175;51.030;4.606;2023-08-12T07:03:25;12.25;;;5.10;;
43580;SDS011;29175;51.030;4.606;2023-08-12T07:05:53;8.35;;;4.10;;
43580;SDS011;29175;51.030;4.606;2023-08-12T07:08:19;8.30;;;4.60;;
43580;SDS011;29175;51.030;4.606;2023-08-12T07:10:46;10.25;;;4.35;;
43580;SDS011;29175;51.030;4.606;2023-08-12T07:13:12;11.43;;;4.40;;
43580;SDS011;29175;51.030;4.606;2023-08-12T07:15:39;8.95;;;4.25;;
43580;SDS011;29175;51.030;4.606;2023-08-12T07:18:04;10.18;;;4.00;;
43580;SDS011;29175;51.030;4.606;2023-08-12T07:20:30;7.32;;;3.72;;
43580;SDS011;29175;51.030;4.606;2023-08-12T07:22:56;6.50;;;3.35;;
43580;SDS011;29175;51.030;4.606;2023-08-12T07:25:22;6.55;;;3.42;;
43580;SDS011;29175;51.030;4.606;2023-08-12T07:27:48;5.90;;;2.95;;
43580;SDS011;29175;51.030;4.606;2023-08-12T07:30:13;4.85;;;3.00;;
43580;SDS011;29175;51.030;4.606;2023-08-12T07:32:39;5.28;;;2.95;;
43580;SDS011;29175;51.030;4.606;2023-08-12T07:35:10;6.15;;;2.70;;
43580;SDS011;29175;51.030;4.606;2023-08-12T07:37:36;5.05;;;2.05;;
43580;SDS011;29175;51.030;4.606;2023-08-12T07:40:02;4.82;;;1.75;;
43580;SDS011;29175;51.030;4.606;2023-08-12T07:42:28;5.72;;;1.73;;
43580;SDS011;29175;51.030;4.606;2023-08-12T07:44:54;3.42;;;1.40;;
43580;SDS011;29175;51.030;4.606;2023-08-12T07:47:20;4.85;;;1.67;;
43580;SDS011;29175;51.030;4.606;2023-08-12T07:49:46;3.50;;;1.70;;
43580;SDS011;29175;51.030;4.606;2023-08-12T07:52:12;5.70;;;1.75;;
43580;SDS011;29175;51.030;4.606;2023-08-12T07:54:39;2.63;;;1.50;;
43580;SDS011;29175;51.030;4.606;2023-08-12T07:57:05;3.67;;;2.40;;
43580;SDS011;29175;51.030;4.606;2023-08-12T07:59:31;7.93;;;2.35;;
43580;SDS011;29175;51.030;4.606;2023-08-12T08:01:56;4.55;;;2.20;;
43580;SDS011;29175;51.030;4.606;2023-08-12T08:04:22;8.95;;;3.60;;
43580;SDS011;29175;51.030;4.606;2023-08-12T08:06:48;7.50;;;4.40;;
43580;SDS011;29175;51.030;4.606;2023-08-12T08:09:13;9.57;;;4.75;;
43580;SDS011;29175;51.030;4.606;2023-08-12T08:11:39;11.18;;;5.25;;
43580;SDS011;29175;51.030;4.606;2023-08-12T08:14:05;9.07;;;4.85;;
43580;SDS011;29175;51.030;4.606;2023-08-12T08:16:30;13.68;;;5.20;;
43580;SDS011;29175;51.030;4.606;2023-08-12T08:18:56;8.82;;;4.80;;
43580;SDS011;29175;51.030;4.606;2023-08-12T08:21:22;9.95;;;4.25;;
43580;SDS011;29175;51.030;4.606;2023-08-12T08:23:48;5.07;;;3.55;;
43580;SDS011;29175;51.030;4.606;2023-08-12T08:26:13;6.78;;;3.60;;
43580;SDS011;29175;51.030;4.606;2023-08-12T08:28:40;7.18;;;3.65;;
43580;SDS011;29175;51.030;4.606;2023-08-12T08:31:06;4.28;;;2.70;;
43580;SDS011;29175;51.030;4.606;2023-08-12T08:33:32;5.32;;;3.00;;
43580;SDS011;29175;51.030;4.606;2023-08-12T08:35:58;4.53;;;3.20;;
43580;SDS011;29175;51.030;4.606;2023-08-12T08:38:23;6.35;;;3.13;;
43580;SDS011;29175;51.030;4.606;2023-08-12T08:40:49;3.92;;;2.90;;
43580;SDS011;29175;51.030;4.606;2023-08-12T08:43:18;8.60;;;3.05;;
43580;SDS011;29175;51.030;4.606;2023-08-12T08:45:49;5.25;;;3.72;;
43580;SDS011;29175;51.030;4.606;2023-08-12T08:48:19;5.25;;;3.67;;
43580;SDS011;29175;51.030;4.606;2023-08-12T08:50:46;8.95;;;4.22;;
43580;SDS011;29175;51.030;4.606;2023-08-12T08:53:13;5.15;;;3.45;;
43580;SDS011;29175;51.030;4.606;2023-08-12T08:55:41;6.53;;;3.72;;
43580;SDS011;29175;51.030;4.606;2023-08-12T08:58:07;7.35;;;4.40;;
43580;SDS011;29175;51.030;4.606;2023-08-12T09:00:32;7.25;;;3.70;;
43580;SDS011;29175;51.030;4.606;2023-08-12T09:02:58;9.18;;;4.18;;
43580;SDS011;29175;51.030;4.606;2023-08-12T09:05:25;7.28;;;3.15;;
43580;SDS011;29175;51.030;4.606;2023-08-12T09:07:52;8.63;;;3.30;;
43580;SDS011;29175;51.030;4.606;2023-08-12T09:10:20;4.50;;;2.30;;
43580;SDS011;29175;51.030;4.606;2023-08-12T09:12:46;5.57;;;2.33;;
43580;SDS011;29175;51.030;4.606;2023-08-12T09:15:12;7.20;;;2.00;;
43580;SDS011;29175;51.030;4.606;2023-08-12T09:17:38;7.28;;;2.63;;
43580;SDS011;29175;51.030;4.606;2023-08-12T09:20:04;5.68;;;2.20;;
43580;SDS011;29175;51.030;4.606;2023-08-12T09:22:37;5.93;;;2.38;;
43580;SDS011;29175;51.030;4.606;2023-08-12T09:25:03;5.00;;;2.13;;
43580;SDS011;29175;51.030;4.606;2023-08-12T09:27:30;4.00;;;2.03;;
43580;SDS011;29175;51.030;4.606;2023-08-12T09:29:57;5.63;;;2.05;;
43580;SDS011;29175;51.030;4.606;2023-08-12T09:32:23;8.70;;;2.90;;
43580;SDS011;29175;51.030;4.606;2023-08-12T09:34:50;6.93;;;2.20;;
43580;SDS011;29175;51.030;4.606;2023-08-12T09:37:16;7.95;;;2.22;;
43580;SDS011;29175;51.030;4.606;2023-08-12T09:39:43;2.58;;;1.70;;
43580;SDS011;29175;51.030;4.606;2023-08-12T09:42:10;6.10;;;2.10;;
43580;SDS011;29175;51.030;4.606;2023-08-12T09:44:40;8.88;;;2.38;;
43580;SDS011;29175;51.030;4.606;2023-08-12T09:47:06;9.82;;;2.10;;
43580;SDS011;29175;51.030;4.606;2023-08-12T09:49:36;7.00;;;2.20;;
43580;SDS011;29175;51.030;4.606;2023-08-12T09:52:03;4.82;;;2.22;;
43580;SDS011;29175;51.030;4.606;2023-08-12T09:54:35;5.25;;;2.47;;
43580;SDS011;29175;51.030;4.606;2023-08-12T09:57:01;5.47;;;2.20;;
43580;SDS011;29175;51.030;4.606;2023-08-12T09:59:32;5.53;;;2.35;;
43580;SDS011;29175;51.030;4.606;2023-08-12T10:02:03;6.38;;;2.67;;
43580;SDS011;29175;51.030;4.606;2023-08-12T10:04:36;7.68;;;2.72;;
43580;SDS011;29175;51.030;4.606;2023-08-12T10:07:07;6.10;;;2.63;;
43580;SDS011;29175;51.030;4.606;2023-08-12T10:09:40;6.88;;;2.95;;
43580;SDS011;29175;51.030;4.606;2023-08-12T10:12:07;4.80;;;2.28;;
43580;SDS011;29175;51.030;4.606;2023-08-12T10:14:34;5.10;;;2.88;;
43580;SDS011;29175;51.030;4.606;2023-08-12T10:17:00;6.03;;;2.65;;
43580;SDS011;29175;51.030;4.606;2023-08-12T10:19:26;5.88;;;2.95;;
43580;SDS011;29175;51.030;4.606;2023-08-12T10:21:56;7.47;;;2.75;;
43580;SDS011;29175;51.030;4.606;2023-08-12T10:24:23;5.70;;;2.33;;
43580;SDS011;29175;51.030;4.606;2023-08-12T10:26:53;6.03;;;2.60;;
43580;SDS011;29175;51.030;4.606;2023-08-12T10:29:19;5.60;;;2.13;;
43580;SDS011;29175;51.030;4.606;2023-08-12T10:31:46;9.88;;;2.28;;
43580;SDS011;29175;51.030;4.606;2023-08-12T10:34:22;7.82;;;2.50;;
43580;SDS011;29175;51.030;4.606;2023-08-12T10:36:52;7.60;;;2.38;;
43580;SDS011;29175;51.030;4.606;2023-08-12T10:39:25;8.63;;;1.90;;
43580;SDS011;29175;51.030;4.606;2023-08-12T10:41:56;6.72;;;2.03;;
43580;SDS011;29175;51.030;4.606;2023-08-12T10:44:26;8.07;;;1.80;;
43580;SDS011;29175;51.030;4.606;2023-08-12T10:47:07;5.28;;;1.67;;
43580;SDS011;29175;51.030;4.606;2023-08-12T10:49:43;6.50;;;2.17;;
43580;SDS011;29175;51.030;4.606;2023-08-12T10:52:31;8.43;;;2.17;;
43580;SDS011;29175;51.030;4.606;2023-08-12T10:58:01;6.88;;;2.30;;
43580;SDS011;29175;51.030;4.606;2023-08-12T11:00:34;5.57;;;2.28;;
43580;SDS011;29175;51.030;4.606;2023-08-12T11:03:00;10.68;;;2.55;;
43580;SDS011;29175;51.030;4.606;2023-08-12T11:05:37;7.20;;;2.10;;
43580;SDS011;29175;51.030;4.606;2023-08-12T11:08:03;8.82;;;2.78;;
43580;SDS011;29175;51.030;4.606;2023-08-12T11:10:32;7.40;;;1.90;;
43580;SDS011;29175;51.030;4.606;2023-08-12T11:12:59;9.43;;;2.10;;
43580;SDS011;29175;51.030;4.606;2023-08-12T11:18:05;5.82;;;2.00;;
43580;SDS011;29175;51.030;4.606;2023-08-12T11:20:37;6.82;;;1.70;;
43580;SDS011;29175;51.030;4.606;2023-08-12T11:23:04;8.25;;;2.00;;
43580;SDS011;29175;51.030;4.606;2023-08-12T11:25:31;7.32;;;1.92;;
43580;SDS011;29175;51.030;4.606;2023-08-12T11:27:58;3.95;;;1.65;;
43580;SDS011;29175;51.030;4.606;2023-08-12T11:30:24;7.15;;;2.53;;
43580;SDS011;29175;51.030;4.606;2023-08-12T11:32:52;10.82;;;1.70;;
43580;SDS011;29175;51.030;4.606;2023-08-12T11:35:19;6.10;;;1.58;;
43580;SDS011;29175;51.030;4.606;2023-08-12T11:37:46;7.40;;;1.90;;
43580;SDS011;29175;51.030;4.606;2023-08-12T11:40:14;11.23;;;2.08;;
43580;SDS011;29175;51.030;4.606;2023-08-12T11:42:42;4.97;;;1.80;;
43580;SDS011;29175;51.030;4.606;2023-08-12T11:45:12;10.75;;;2.15;;
43580;SDS011;29175;51.030;4.606;2023-08-12T11:47:41;5.45;;;1.77;;
43580;SDS011;29175;51.030;4.606;2023-08-12T11:50:09;11.32;;;2.08;;
43580;SDS011;29175;51.030;4.606;2023-08-12T11:52:37;7.43;;;2.50;;
43580;SDS011;29175;51.030;4.606;2023-08-12T11:55:04;8.57;;;2.13;;
43580;SDS011;29175;51.030;4.606;2023-08-12T11:57:32;11.43;;;2.05;;
43580;SDS011;29175;51.030;4.606;2023-08-12T12:00:02;6.68;;;2.00;;
43580;SDS011;29175;51.030;4.606;2023-08-12T12:02:39;14.18;;;2.03;;
43580;SDS011;29175;51.030;4.606;2023-08-12T12:05:15;5.15;;;1.98;;
43580;SDS011;29175;51.030;4.606;2023-08-12T12:07:41;8.93;;;1.63;;
43580;SDS011;29175;51.030;4.606;2023-08-12T12:10:11;10.60;;;1.88;;
43580;SDS011;29175;51.030;4.606;2023-08-12T12:12:40;5.72;;;1.75;;
43580;SDS011;29175;51.030;4.606;2023-08-12T12:15:06;5.95;;;1.73;;
43580;SDS011;29175;51.030;4.606;2023-08-12T12:17:32;10.05;;;1.90;;
43580;SDS011;29175;51.030;4.606;2023-08-12T12:20:03;10.00;;;2.05;;
43580;SDS011;29175;51.030;4.606;2023-08-12T12:22:31;10.40;;;1.90;;
43580;SDS011;29175;51.030;4.606;2023-08-12T12:24:58;6.10;;;1.73;;
43580;SDS011;29175;51.030;4.606;2023-08-12T12:27:25;9.70;;;1.70;;
43580;SDS011;29175;51.030;4.606;2023-08-12T12:29:55;7.45;;;1.60;;
43580;SDS011;29175;51.030;4.606;2023-08-12T12:32:21;5.27;;;1.63;;
43580;SDS011;29175;51.030;4.606;2023-08-12T12:34:47;7.30;;;2.30;;
43580;SDS011;29175;51.030;4.606;2023-08-12T12:37:14;6.25;;;2.20;;
43580;SDS011;29175;51.030;4.606;2023-08-12T12:39:41;5.28;;;1.40;;
43580;SDS011;29175;51.030;4.606;2023-08-12T12:42:07;13.25;;;1.98;;
43580;SDS011;29175;51.030;4.606;2023-08-12T12:44:33;9.38;;;1.80;;
43580;SDS011;29175;51.030;4.606;2023-08-12T12:46:59;8.10;;;2.08;;
43580;SDS011;29175;51.030;4.606;2023-08-12T12:49:25;13.77;;;2.30;;
43580;SDS011;29175;51.030;4.606;2023-08-12T12:51:55;6.72;;;1.80;;
43580;SDS011;29175;51.030;4.606;2023-08-12T12:54:21;9.50;;;1.90;;
43580;SDS011;29175;51.030;4.606;2023-08-12T12:56:47;10.40;;;1.95;;
43580;SDS011;29175;51.030;4.606;2023-08-12T12:59:12;10.70;;;1.90;;
43580;SDS011;29175;51.030;4.606;2023-08-12T13:01:40;8.57;;;1.67;;
43580;SDS011;29175;51.030;4.606;2023-08-12T13:04:06;7.20;;;1.80;;
43580;SDS011;29175;51.030;4.606;2023-08-12T13:06:33;7.60;;;2.00;;
43580;SDS011;29175;51.030;4.606;2023-08-12T13:08:59;6.85;;;1.83;;
43580;SDS011;29175;51.030;4.606;2023-08-12T13:11:25;8.25;;;2.17;;
43580;SDS011;29175;51.030;4.606;2023-08-12T13:13:52;7.70;;;1.65;;
43580;SDS011;29175;51.030;4.606;2023-08-12T13:16:19;7.65;;;2.00;;
43580;SDS011;29175;51.030;4.606;2023-08-12T13:18:45;4.80;;;1.60;;
43580;SDS011;29175;51.030;4.606;2023-08-12T13:21:11;7.38;;;1.90;;
43580;SDS011;29175;51.030;4.606;2023-08-12T13:23:36;7.43;;;1.60;;
43580;SDS011;29175;51.030;4.606;2023-08-12T13:26:02;8.93;;;2.08;;
43580;SDS011;29175;51.030;4.606;2023-08-12T13:28:28;7.22;;;1.88;;
43580;SDS011;29175;51.030;4.606;2023-08-12T13:30:56;8.82;;;1.80;;
43580;SDS011;29175;51.030;4.606;2023-08-12T13:33:24;10.77;;;1.80;;
43580;SDS011;29175;51.030;4.606;2023-08-12T13:35:49;9.05;;;2.00;;
43580;SDS011;29175;51.030;4.606;2023-08-12T13:38:15;6.57;;;2.22;;
43580;SDS011;29175;51.030;4.606;2023-08-12T13:40:40;5.82;;;1.48;;
43580;SDS011;29175;51.030;4.606;2023-08-12T13:43:06;7.20;;;1.65;;
43580;SDS011;29175;51.030;4.606;2023-08-12T13:45:32;6.88;;;1.77;;
43580;SDS011;29175;51.030;4.606;2023-08-12T13:47:58;6.05;;;1.70;;
43580;SDS011;29175;51.030;4.606;2023-08-12T13:50:23;11.60;;;1.90;;
43580;SDS011;29175;51.030;4.606;2023-08-12T13:52:49;13.00;;;1.98;;
43580;SDS011;29175;51.030;4.606;2023-08-12T13:55:15;6.18;;;1.70;;
43580;SDS011;29175;51.030;4.606;2023-08-12T13:57:41;8.27;;;1.75;;
43580;SDS011;29175;51.030;4.606;2023-08-12T14:00:07;6.93;;;1.88;;
43580;SDS011;29175;51.030;4.606;2023-08-12T14:02:37;4.15;;;1.90;;
43580;SDS011;29175;51.030;4.606;2023-08-12T14:05:03;6.40;;;1.60;;
43580;SDS011;29175;51.030;4.606;2023-08-12T14:07:29;6.50;;;1.50;;
43580;SDS011;29175;51.030;4.606;2023-08-12T14:09:55;10.65;;;1.67;;
43580;SDS011;29175;51.030;4.606;2023-08-12T14:12:21;7.13;;;1.83;;
43580;SDS011;29175;51.030;4.606;2023-08-12T14:14:47;7.72;;;1.80;;
43580;SDS011;29175;51.030;4.606;2023-08-12T14:17:13;5.40;;;2.03;;
43580;SDS011;29175;51.030;4.606;2023-08-12T14:19:41;6.60;;;1.75;;
43580;SDS011;29175;51.030;4.606;2023-08-12T14:22:08;4.30;;;2.08;;
43580;SDS011;29175;51.030;4.606;2023-08-12T14:24:34;10.93;;;2.22;;
43580;SDS011;29175;51.030;4.606;2023-08-12T14:26:59;6.88;;;1.92;;
43580;SDS011;29175;51.030;4.606;2023-08-12T14:29:25;8.20;;;1.90;;
43580;SDS011;29175;51.030;4.606;2023-08-12T14:31:51;6.35;;;1.80;;
43580;SDS011;29175;51.030;4.606;2023-08-12T14:34:17;10.48;;;2.00;;
43580;SDS011;29175;51.030;4.606;2023-08-12T14:36:43;4.68;;;1.67;;
43580;SDS011;29175;51.030;4.606;2023-08-12T14:39:09;10.15;;;2.20;;
43580;SDS011;29175;51.030;4.606;2023-08-12T14:41:34;4.53;;;1.67;;
43580;SDS011;29175;51.030;4.606;2023-08-12T14:44:00;6.10;;;1.83;;
43580;SDS011;29175;51.030;4.606;2023-08-12T14:46:26;7.82;;;2.25;;
43580;SDS011;29175;51.030;4.606;2023-08-12T14:48:51;5.30;;;1.88;;
43580;SDS011;29175;51.030;4.606;2023-08-12T14:51:18;7.50;;;1.98;;
43580;SDS011;29175;51.030;4.606;2023-08-12T14:53:44;6.18;;;1.60;;
43580;SDS011;29175;51.030;4.606;2023-08-12T14:56:12;7.78;;;1.92;;